createdAt,value
2023-04-17T00:02:04.113Z,17.33
2023-04-17T00:04:32.269Z,19.20
2023-04-17T00:07:03.232Z,17.63
2023-04-17T00:09:30.906Z,19.23
2023-04-17T00:11:58.173Z,20.30
2023-04-17T00:14:25.345Z,18.47
2023-04-17T00:16:52.564Z,19.10
2023-04-17T00:19:19.768Z,18.77
2023-04-17T00:21:46.938Z,18.43
2023-04-17T00:24:14.355Z,20.63
2023-04-17T00:26:42.114Z,18.50
2023-04-17T00:29:09.427Z,20.63
2023-04-17T00:31:37.064Z,21.17
2023-04-17T00:34:04.632Z,20.00
2023-04-17T00:36:32.266Z,20.17
2023-04-17T00:38:59.448Z,20.27
2023-04-17T00:41:26.683Z,18.27
2023-04-17T00:43:53.894Z,19.80
2023-04-17T00:46:22.130Z,19.13
2023-04-17T00:48:49.828Z,20.40
2023-04-17T00:51:17.049Z,20.10
2023-04-17T00:53:44.897Z,19.90
2023-04-17T00:56:12.484Z,21.00
2023-04-17T00:58:40.711Z,18.63
2023-04-17T01:01:08.276Z,20.13
2023-04-17T01:03:35.765Z,21.83
2023-04-17T01:06:03.709Z,18.13
2023-04-17T01:08:41.989Z,19.97
2023-04-17T01:11:10.903Z,19.83
2023-04-17T01:13:48.783Z,18.60
2023-04-17T01:16:17.941Z,19.47
2023-04-17T01:18:46.425Z,19.40
2023-04-17T01:21:14.099Z,21.60
2023-04-17T01:23:53.168Z,19.97
2023-04-17T01:26:26.104Z,21.47
2023-04-17T01:28:56.045Z,20.33
2023-04-17T01:31:25.813Z,19.93
2023-04-17T01:33:53.785Z,19.70
2023-04-17T01:36:21.409Z,20.10
2023-04-17T01:38:48.643Z,20.90
2023-04-17T01:41:15.873Z,23.10
2023-04-17T01:43:45.841Z,21.80
2023-04-17T01:46:13.875Z,21.37
2023-04-17T01:48:41.275Z,19.50
2023-04-17T01:51:09.292Z,22.37
2023-04-17T01:53:38.010Z,22.03
2023-04-17T01:56:05.492Z,21.67
2023-04-17T01:58:32.904Z,22.63
2023-04-17T02:01:00.391Z,22.03
2023-04-17T02:03:27.994Z,22.40
2023-04-17T02:05:55.599Z,21.27
2023-04-17T02:08:22.859Z,22.80
2023-04-17T02:10:50.712Z,22.47
2023-04-17T02:13:18.194Z,22.20
2023-04-17T02:15:45.822Z,23.00
2023-04-17T02:18:13.718Z,23.90
2023-04-17T02:20:40.871Z,23.30
2023-04-17T02:23:08.171Z,26.10
2023-04-17T02:25:35.394Z,24.57
2023-04-17T02:28:04.462Z,23.23
2023-04-17T02:30:31.748Z,26.30
2023-04-17T02:32:59.478Z,25.87
2023-04-17T02:35:28.605Z,26.90
2023-04-17T02:37:57.471Z,26.33
2023-04-17T02:40:25.470Z,27.97
2023-04-17T02:42:59.428Z,24.70
2023-04-17T02:45:26.605Z,24.73
2023-04-17T02:47:54.394Z,26.10
2023-04-17T02:50:22.866Z,25.70
2023-04-17T02:53:13.080Z,25.80
2023-04-17T02:55:40.236Z,24.77
2023-04-17T02:58:07.690Z,26.13
2023-04-17T03:00:34.904Z,26.00
2023-04-17T03:03:03.249Z,25.03
2023-04-17T03:05:30.948Z,26.93
2023-04-17T03:08:00.599Z,26.20
2023-04-17T03:10:32.658Z,24.80
2023-04-17T03:12:59.844Z,26.20
2023-04-17T03:15:27.052Z,26.60
2023-04-17T03:17:54.496Z,25.17
2023-04-17T03:20:21.721Z,25.47
2023-04-17T03:22:48.896Z,27.37
2023-04-17T03:25:16.114Z,27.93
2023-04-17T03:27:53.006Z,28.93
2023-04-17T03:30:23.023Z,28.60
2023-04-17T03:32:52.229Z,30.40
2023-04-17T03:35:20.326Z,27.40
2023-04-17T03:37:47.897Z,28.57
2023-04-17T03:40:15.230Z,28.07
2023-04-17T03:42:44.765Z,29.53
2023-04-17T03:45:12.261Z,29.60
2023-04-17T03:47:39.484Z,32.30
2023-04-17T03:50:08.209Z,30.00
2023-04-17T03:52:41.270Z,29.43
2023-04-17T03:55:10.199Z,30.13
2023-04-17T03:57:37.480Z,29.63
2023-04-17T04:00:10.418Z,30.87
2023-04-17T04:02:49.374Z,29.30
2023-04-17T04:05:20.714Z,31.70
2023-04-17T04:07:48.024Z,28.70
2023-04-17T04:10:22.321Z,32.10
2023-04-17T04:12:49.652Z,31.30
2023-04-17T04:15:16.898Z,27.93
2023-04-17T04:17:46.810Z,28.80
2023-04-17T04:20:14.174Z,33.10
2023-04-17T04:22:41.563Z,31.83
2023-04-17T04:25:08.796Z,33.67
2023-04-17T04:27:49.758Z,31.73
2023-04-17T04:30:21.800Z,31.80
2023-04-17T04:32:51.579Z,32.57
2023-04-17T04:35:19.024Z,32.07
2023-04-17T04:37:46.398Z,31.97
2023-04-17T04:40:14.655Z,32.93
2023-04-17T04:42:42.481Z,34.23
2023-04-17T04:45:14.232Z,34.43
2023-04-17T04:47:43.755Z,35.53
2023-04-17T04:50:11.180Z,37.10
2023-04-17T04:52:38.379Z,32.80
2023-04-17T04:55:21.743Z,32.80
2023-04-17T04:57:54.559Z,31.53
2023-04-17T05:00:23.794Z,33.83
2023-04-17T05:02:55.134Z,34.40
2023-04-17T05:05:25.458Z,34.00
2023-04-17T05:07:54.995Z,33.40
2023-04-17T05:10:25.580Z,37.33
2023-04-17T05:12:58.408Z,33.00
2023-04-17T05:15:25.895Z,32.70
2023-04-17T05:17:53.506Z,33.77
2023-04-17T05:20:21.755Z,32.87
2023-04-17T05:22:54.188Z,33.80
2023-04-17T05:25:22.765Z,35.10
2023-04-17T05:27:56.872Z,34.60
2023-04-17T05:30:24.802Z,35.30
2023-04-17T05:33:04.413Z,34.50
2023-04-17T05:35:43.487Z,33.50
2023-04-17T05:38:11.321Z,36.43
2023-04-17T05:40:38.601Z,34.30
2023-04-17T05:43:11.077Z,37.60
2023-04-17T05:45:41.309Z,31.37
2023-04-17T05:48:10.700Z,34.67
2023-04-17T05:50:38.077Z,35.10
2023-04-17T05:53:07.111Z,30.30
2023-04-17T05:55:39.592Z,33.97
2023-04-17T05:58:23.047Z,33.77
2023-04-17T06:00:54.029Z,31.63
2023-04-17T06:03:21.660Z,30.27
2023-04-17T06:05:54.754Z,33.57
2023-04-17T06:08:22.261Z,30.60
2023-04-17T06:10:52.085Z,33.00
2023-04-17T06:13:19.257Z,29.77
2023-04-17T06:15:51.293Z,29.97
2023-04-17T06:18:19.544Z,30.10
2023-04-17T06:20:47.121Z,27.33
2023-04-17T06:23:14.413Z,30.17
2023-04-17T06:25:42.869Z,31.10
2023-04-17T06:28:10.283Z,30.37
2023-04-17T06:30:38.167Z,29.50
2023-04-17T06:33:06.839Z,27.00
2023-04-17T06:35:38.358Z,26.90
2023-04-17T06:38:20.713Z,26.93
2023-04-17T06:40:49.175Z,27.30
2023-04-17T06:43:17.457Z,27.97
2023-04-17T06:45:44.837Z,27.07
2023-04-17T06:48:12.114Z,27.33
2023-04-17T06:50:39.608Z,24.67
2023-04-17T06:53:07.192Z,25.97
2023-04-17T06:55:34.715Z,24.17
2023-04-17T06:58:02.034Z,25.63
2023-04-17T07:00:29.334Z,26.23
2023-04-17T07:02:56.722Z,26.33
2023-04-17T07:05:24.084Z,24.90
2023-04-17T07:07:51.344Z,24.53
2023-04-17T07:10:19.518Z,25.23
2023-04-17T07:12:47.313Z,22.87
2023-04-17T07:15:16.235Z,23.97
2023-04-17T07:17:44.902Z,23.00
2023-04-17T07:20:12.500Z,24.13
2023-04-17T07:22:40.000Z,24.57
2023-04-17T07:25:07.866Z,21.97
2023-04-17T07:27:38.194Z,24.50
2023-04-17T07:30:08.009Z,22.53
2023-04-17T07:32:36.287Z,24.60
2023-04-17T07:35:04.509Z,23.10
2023-04-17T07:37:32.749Z,21.60
2023-04-17T07:40:00.025Z,20.30
2023-04-17T07:42:28.415Z,21.23
2023-04-17T07:44:57.006Z,20.70
2023-04-17T07:47:24.682Z,20.70
2023-04-17T07:49:52.094Z,18.17
2023-04-17T07:52:19.402Z,18.10
2023-04-17T07:54:48.000Z,19.20
2023-04-17T07:57:17.906Z,18.93
2023-04-17T07:59:46.498Z,17.60
2023-04-17T08:02:15.905Z,16.23
2023-04-17T08:04:44.571Z,17.50
2023-04-17T08:07:13.078Z,16.43
2023-04-17T08:09:42.547Z,15.40
2023-04-17T08:12:14.955Z,14.87
2023-04-17T08:14:43.637Z,15.30
2023-04-17T08:17:11.585Z,13.43
2023-04-17T08:19:39.203Z,13.40
2023-04-17T08:22:07.365Z,11.30
2023-04-17T08:24:34.901Z,12.77
2023-04-17T08:27:02.502Z,13.03
2023-04-17T08:29:30.402Z,12.40
2023-04-17T08:32:13.436Z,14.30
2023-04-17T08:34:42.512Z,14.37
2023-04-17T08:37:10.152Z,14.70
2023-04-17T08:39:37.672Z,13.30
2023-04-17T08:42:12.082Z,15.63
2023-04-17T08:44:42.952Z,14.57
2023-04-17T08:47:12.768Z,13.77
2023-04-17T08:49:43.620Z,13.93
2023-04-17T08:52:11.941Z,14.47
2023-04-17T08:54:39.624Z,14.20
2023-04-17T08:57:07.774Z,13.27
2023-04-17T08:59:35.286Z,12.83
2023-04-17T09:02:04.522Z,13.07
2023-04-17T09:04:45.470Z,14.20
2023-04-17T09:07:15.341Z,12.37
2023-04-17T09:09:53.595Z,12.63
2023-04-17T09:12:22.341Z,13.20
2023-04-17T09:14:49.935Z,13.40
2023-04-17T09:17:18.335Z,13.97
2023-04-17T09:20:11.148Z,13.80
2023-04-17T09:22:41.058Z,12.33
2023-04-17T09:25:18.850Z,11.70
2023-04-17T09:27:46.587Z,12.20
2023-04-17T09:30:14.810Z,12.50
2023-04-17T09:32:43.148Z,11.80
2023-04-17T09:35:10.790Z,11.47
2023-04-17T09:37:48.726Z,11.00
2023-04-17T09:40:16.256Z,10.40
2023-04-17T09:43:00.404Z,10.57
2023-04-17T09:45:36.781Z,11.47
2023-04-17T09:48:08.429Z,10.00
2023-04-17T09:50:37.419Z,10.70
2023-04-17T09:53:07.012Z,10.20
2023-04-17T09:55:36.882Z,10.00
2023-04-17T09:58:06.270Z,9.70
2023-04-17T10:00:34.361Z,10.30
2023-04-17T10:03:15.024Z,9.77
2023-04-17T10:05:43.305Z,8.13
2023-04-17T10:08:10.892Z,8.60
2023-04-17T10:10:38.621Z,6.87
2023-04-17T10:13:12.679Z,7.00
2023-04-17T10:15:40.338Z,8.37
2023-04-17T10:18:25.010Z,8.60
2023-04-17T10:20:53.626Z,8.83
2023-04-17T10:23:29.678Z,7.47
2023-04-17T10:26:16.118Z,8.50
2023-04-17T10:28:50.674Z,8.60
2023-04-17T10:31:18.226Z,8.10
2023-04-17T10:33:49.525Z,6.87
2023-04-17T10:36:37.286Z,6.97
2023-04-17T10:39:15.028Z,5.50
2023-04-17T10:42:01.519Z,4.87
2023-04-17T10:44:34.032Z,5.70
2023-04-17T10:47:08.475Z,5.77
2023-04-17T10:49:47.507Z,4.90
2023-04-17T10:52:34.869Z,5.50
2023-04-17T10:55:03.384Z,4.27
2023-04-17T10:57:49.674Z,5.00
2023-04-17T11:00:18.262Z,4.70
2023-04-17T11:02:48.010Z,4.93
2023-04-17T11:05:15.771Z,3.77
2023-04-17T11:07:44.557Z,4.47
2023-04-17T11:10:12.989Z,4.40
2023-04-17T11:12:40.612Z,5.87
2023-04-17T11:15:08.501Z,5.50
2023-04-17T11:17:36.121Z,6.07
2023-04-17T11:20:04.226Z,5.57
2023-04-17T11:22:33.896Z,4.43
2023-04-17T11:25:01.454Z,5.60
2023-04-17T11:27:29.085Z,5.90
2023-04-17T11:29:56.816Z,6.70
2023-04-17T11:32:24.432Z,6.37
2023-04-17T11:34:54.646Z,6.00
2023-04-17T11:37:22.223Z,6.03
2023-04-17T11:39:50.404Z,6.80
2023-04-17T11:42:26.326Z,6.90
2023-04-17T11:44:53.796Z,6.50
2023-04-17T11:47:21.650Z,6.00
2023-04-17T11:49:49.216Z,6.37
2023-04-17T11:52:17.860Z,6.40
2023-04-17T11:54:45.882Z,6.43
2023-04-17T11:57:14.353Z,6.53
2023-04-17T11:59:45.221Z,7.47
2023-04-17T12:02:12.967Z,6.57
2023-04-17T12:04:41.084Z,6.93
2023-04-17T12:07:21.780Z,6.77
2023-04-17T12:09:56.831Z,5.80
2023-04-17T12:12:24.406Z,5.60
2023-04-17T12:14:51.911Z,4.90
2023-04-17T12:17:19.884Z,5.07
2023-04-17T12:19:47.465Z,4.50
2023-04-17T12:22:16.188Z,5.40
2023-04-17T12:24:43.793Z,5.60
2023-04-17T12:27:11.289Z,5.23
2023-04-17T12:29:44.301Z,5.97
2023-04-17T12:32:13.429Z,5.10
2023-04-17T12:34:41.178Z,5.50
2023-04-17T12:37:09.108Z,4.70
2023-04-17T12:39:37.252Z,4.37
2023-04-17T12:42:04.978Z,4.33
2023-04-17T12:44:32.486Z,4.10
2023-04-17T12:47:00.752Z,4.50
2023-04-17T12:49:28.236Z,4.83
2023-04-17T12:51:56.011Z,4.60
2023-04-17T12:54:23.510Z,4.90
2023-04-17T12:56:51.108Z,4.30
2023-04-17T12:59:19.767Z,4.80
2023-04-17T13:01:47.866Z,5.30
2023-04-17T13:04:16.072Z,4.40
2023-04-17T13:06:44.141Z,5.40
2023-04-17T13:09:12.461Z,6.17
2023-04-17T13:11:40.439Z,6.03
2023-04-17T13:14:08.997Z,6.47
2023-04-17T13:16:36.685Z,5.37
2023-04-17T13:19:04.249Z,5.47
2023-04-17T13:21:32.212Z,5.47
2023-04-17T13:24:00.430Z,5.50
2023-04-17T13:26:28.122Z,5.70
2023-04-17T13:28:55.608Z,5.13
2023-04-17T13:31:25.703Z,6.30
2023-04-17T13:33:53.239Z,5.10
2023-04-17T13:36:20.773Z,6.40
2023-04-17T13:38:48.420Z,6.50
2023-04-17T13:41:15.939Z,6.90
2023-04-17T13:43:43.431Z,6.40
2023-04-17T13:46:15.732Z,6.63
2023-04-17T13:48:43.872Z,6.40
2023-04-17T13:51:11.772Z,6.47
2023-04-17T13:53:39.282Z,4.67
2023-04-17T13:56:07.107Z,5.27
2023-04-17T13:58:35.422Z,5.00
2023-04-17T14:01:02.999Z,4.80
2023-04-17T14:03:30.747Z,5.33
2023-04-17T14:05:58.579Z,6.10
2023-04-17T14:08:26.665Z,5.90
2023-04-17T14:10:54.225Z,4.80
2023-04-17T14:13:21.748Z,5.20
2023-04-17T14:15:52.417Z,5.50
2023-04-17T14:18:20.539Z,5.30
2023-04-17T14:20:48.478Z,5.00
2023-04-17T14:23:16.034Z,5.23
2023-04-17T14:25:43.621Z,4.60
2023-04-17T14:28:11.385Z,4.90
2023-04-17T14:30:39.736Z,4.33
2023-04-17T14:33:07.211Z,5.20
2023-04-17T14:35:35.325Z,4.53
2023-04-17T14:38:04.983Z,4.10
2023-04-17T14:40:32.751Z,4.47
2023-04-17T14:43:00.543Z,4.20
2023-04-17T14:45:28.373Z,4.30
2023-04-17T14:47:56.380Z,3.70
2023-04-17T14:50:24.132Z,4.77
2023-04-17T14:52:52.459Z,4.03
2023-04-17T14:55:20.019Z,4.50
2023-04-17T14:57:47.580Z,4.97
2023-04-17T15:00:15.481Z,4.60
2023-04-17T15:02:43.274Z,4.00
2023-04-17T15:05:11.191Z,4.70
2023-04-17T15:07:38.670Z,4.57
2023-04-17T15:10:06.245Z,4.90
2023-04-17T15:12:33.892Z,5.37
2023-04-17T15:15:01.046Z,4.50
2023-04-17T15:17:28.244Z,4.27
2023-04-17T15:19:57.294Z,4.57
2023-04-17T15:22:26.833Z,4.23
2023-04-17T15:24:54.652Z,4.30
2023-04-17T15:27:21.930Z,5.00
2023-04-17T15:29:49.779Z,5.40
2023-04-17T15:32:17.166Z,6.03
2023-04-17T15:34:44.491Z,5.27
2023-04-17T15:37:12.158Z,5.60
2023-04-17T15:39:39.877Z,5.03
2023-04-17T15:42:09.320Z,4.93
2023-04-17T15:44:37.686Z,5.63
2023-04-17T15:47:05.764Z,5.50
2023-04-17T15:49:34.062Z,5.27
2023-04-17T15:52:01.865Z,5.23
2023-04-17T15:54:29.102Z,5.10
2023-04-17T15:56:56.861Z,5.20
2023-04-17T15:59:24.148Z,5.40
2023-04-17T16:01:52.946Z,5.73
2023-04-17T16:04:20.638Z,5.50
2023-04-17T16:06:48.163Z,6.60
2023-04-17T16:09:19.761Z,6.00
2023-04-17T16:11:48.321Z,5.67
2023-04-17T16:14:16.335Z,6.10
2023-04-17T16:16:44.077Z,6.00
2023-04-17T16:19:11.532Z,6.27
2023-04-17T16:21:39.271Z,6.40
2023-04-17T16:24:06.635Z,5.63
2023-04-17T16:26:33.842Z,5.37
2023-04-17T16:29:03.720Z,6.33
2023-04-17T16:31:31.122Z,6.57
2023-04-17T16:33:58.308Z,6.50
2023-04-17T16:36:27.174Z,5.57
2023-04-17T16:38:54.454Z,5.83
2023-04-17T16:41:21.737Z,5.90
2023-04-17T16:43:48.958Z,6.37
2023-04-17T16:46:23.934Z,5.80
2023-04-17T16:48:59.709Z,5.77
2023-04-17T16:51:27.955Z,5.33
2023-04-17T16:53:55.232Z,5.77
2023-04-17T16:56:22.471Z,5.60
2023-04-17T16:58:49.669Z,5.47
2023-04-17T17:01:17.415Z,5.87
2023-04-17T17:03:46.504Z,5.40
2023-04-17T17:06:13.748Z,5.60
2023-04-17T17:08:46.378Z,5.90
2023-04-17T17:11:14.486Z,5.70
2023-04-17T17:13:41.708Z,6.57
2023-04-17T17:16:08.999Z,5.60
2023-04-17T17:18:36.208Z,5.80
2023-04-17T17:21:04.712Z,6.07
2023-04-17T17:23:32.115Z,5.47
2023-04-17T17:25:59.399Z,6.63
2023-04-17T17:28:26.666Z,5.57
2023-04-17T17:31:10.218Z,6.70
2023-04-17T17:33:37.550Z,6.00
2023-04-17T17:36:05.070Z,6.60
2023-04-17T17:38:32.568Z,6.80
2023-04-17T17:41:01.874Z,7.40
2023-04-17T17:43:29.143Z,5.77
2023-04-17T17:45:56.619Z,6.17
2023-04-17T17:48:23.804Z,6.70
2023-04-17T17:50:55.337Z,6.70
2023-04-17T17:53:26.343Z,7.47
2023-04-17T17:55:55.677Z,7.37
2023-04-17T17:58:24.173Z,7.57
2023-04-17T18:00:51.556Z,6.67
2023-04-17T18:03:19.372Z,6.90
2023-04-17T18:05:47.217Z,6.83
2023-04-17T18:08:17.031Z,6.93
2023-04-17T18:10:44.358Z,6.90
2023-04-17T18:13:11.651Z,7.07
2023-04-17T18:15:39.011Z,6.77
2023-04-17T18:18:06.376Z,7.27
2023-04-17T18:20:38.090Z,7.20
2023-04-17T18:23:05.576Z,6.53
2023-04-17T18:25:35.378Z,7.00
2023-04-17T18:28:03.806Z,7.10
2023-04-17T18:30:31.982Z,6.90
2023-04-17T18:32:59.456Z,6.73
2023-04-17T18:35:27.502Z,6.10
2023-04-17T18:37:56.388Z,6.80
2023-04-17T18:40:23.774Z,6.53
2023-04-17T18:42:51.652Z,6.87
2023-04-17T18:45:19.040Z,7.40
2023-04-17T18:47:46.452Z,7.60
2023-04-17T18:50:14.525Z,7.70
2023-04-17T18:52:44.502Z,7.00
2023-04-17T18:55:14.562Z,6.33
2023-04-17T18:57:42.512Z,6.13
2023-04-17T19:00:11.243Z,7.07
2023-04-17T19:02:40.466Z,6.80
2023-04-17T19:05:08.887Z,6.23
2023-04-17T19:07:36.249Z,6.90
2023-04-17T19:10:05.030Z,7.10
2023-04-17T19:12:32.452Z,6.70
2023-04-17T19:14:59.896Z,5.80
2023-04-17T19:17:27.891Z,6.00
2023-04-17T19:19:55.822Z,6.40
2023-04-17T19:22:23.129Z,6.57
2023-04-17T19:24:53.552Z,5.50
2023-04-17T19:27:21.078Z,6.60
2023-04-17T19:29:48.807Z,5.90
2023-04-17T19:32:16.781Z,5.90
2023-04-17T19:34:44.675Z,5.93
2023-04-17T19:37:12.506Z,6.60
2023-04-17T19:39:39.919Z,6.03
2023-04-17T19:42:07.296Z,6.40
2023-04-17T19:44:34.651Z,6.30
2023-04-17T19:47:01.981Z,6.50
2023-04-17T19:49:29.382Z,7.07
2023-04-17T19:51:56.982Z,6.50
2023-04-17T19:54:24.329Z,6.60
2023-04-17T19:56:51.850Z,7.97
2023-04-17T19:59:19.758Z,8.00
2023-04-17T20:01:48.622Z,6.83
2023-04-17T20:04:16.610Z,6.80
2023-04-17T20:06:44.765Z,7.43
2023-04-17T20:09:14.616Z,7.43
2023-04-17T20:11:42.820Z,7.90
2023-04-17T20:14:11.119Z,7.60
2023-04-17T20:16:38.622Z,7.20
2023-04-17T20:19:05.983Z,7.30
2023-04-17T20:21:33.235Z,7.57
2023-04-17T20:24:01.212Z,6.90
2023-04-17T20:26:28.532Z,8.00
2023-04-17T20:28:56.008Z,7.30
2023-04-17T20:31:23.890Z,7.83
2023-04-17T20:33:51.241Z,8.33
2023-04-17T20:36:18.760Z,8.27
2023-04-17T20:38:46.097Z,8.87
2023-04-17T20:41:13.633Z,7.80
2023-04-17T20:43:41.632Z,9.43
2023-04-17T20:46:08.972Z,9.40
2023-04-17T20:48:36.226Z,9.30
2023-04-17T20:51:05.754Z,9.87
2023-04-17T20:53:33.177Z,8.53
2023-04-17T20:56:00.372Z,8.83
2023-04-17T20:58:27.531Z,9.00
2023-04-17T21:01:01.110Z,8.83
2023-04-17T21:03:32.554Z,8.10
2023-04-17T21:06:00.373Z,9.87
2023-04-17T21:08:27.781Z,10.07
2023-04-17T21:10:55.114Z,9.47
2023-04-17T21:13:23.398Z,9.77
2023-04-17T21:15:50.794Z,9.47
2023-04-17T21:18:18.033Z,10.20
2023-04-17T21:20:46.369Z,9.40
2023-04-17T21:23:14.624Z,9.17
2023-04-17T21:25:42.050Z,10.47
2023-04-17T21:28:09.289Z,10.00
2023-04-17T21:30:37.357Z,8.97
2023-04-17T21:33:05.106Z,9.27
2023-04-17T21:35:32.582Z,9.43
2023-04-17T21:37:59.847Z,9.90
2023-04-17T21:40:30.994Z,9.87
2023-04-17T21:43:01.306Z,9.70
2023-04-17T21:45:28.855Z,9.80
2023-04-17T21:47:56.201Z,10.43
2023-04-17T21:50:23.500Z,9.73
2023-04-17T21:52:50.749Z,9.40
2023-04-17T21:55:18.225Z,10.47
2023-04-17T21:57:45.647Z,10.70
2023-04-17T22:00:14.365Z,9.60
2023-04-17T22:02:41.902Z,10.57
2023-04-17T22:05:10.761Z,9.30
2023-04-17T22:07:53.546Z,10.80
2023-04-17T22:10:23.012Z,9.90
2023-04-17T22:12:50.997Z,10.40
2023-04-17T22:15:18.463Z,9.57
2023-04-17T22:17:46.282Z,9.10
2023-04-17T22:20:13.569Z,8.60
2023-04-17T22:22:41.107Z,9.53
2023-04-17T22:25:08.845Z,9.93
2023-04-17T22:27:36.267Z,9.10
2023-04-17T22:30:06.000Z,9.87
2023-04-17T22:32:34.342Z,9.23
2023-04-17T22:35:02.807Z,9.67
2023-04-17T22:37:30.279Z,9.80
2023-04-17T22:39:57.574Z,10.23
2023-04-17T22:42:24.813Z,10.43
2023-04-17T22:44:52.140Z,10.83
2023-04-17T22:47:21.773Z,11.27
2023-04-17T22:49:49.050Z,10.67
2023-04-17T22:52:16.920Z,10.97
2023-04-17T22:54:44.600Z,10.30
2023-04-17T22:57:11.846Z,11.23
2023-04-17T22:59:41.451Z,11.70
2023-04-17T23:02:08.768Z,10.80
2023-04-17T23:04:36.150Z,10.60
2023-04-17T23:07:03.402Z,11.00
2023-04-17T23:09:30.981Z,11.77
2023-04-17T23:11:58.258Z,11.40
2023-04-17T23:14:28.455Z,10.70
2023-04-17T23:16:55.674Z,11.07
2023-04-17T23:19:23.329Z,11.67
2023-04-17T23:21:51.065Z,11.20
2023-04-17T23:24:18.314Z,10.83
2023-04-17T23:26:46.684Z,11.33
2023-04-17T23:29:13.893Z,11.70
2023-04-17T23:31:42.970Z,12.20
2023-04-17T23:34:10.817Z,11.93
2023-04-17T23:36:38.106Z,11.70
2023-04-17T23:39:05.676Z,12.03
2023-04-17T23:41:33.729Z,12.47
2023-04-17T23:44:01.671Z,12.13
2023-04-17T23:46:29.051Z,11.53
2023-04-17T23:48:56.381Z,12.10
2023-04-17T23:51:23.722Z,12.03
2023-04-17T23:53:51.114Z,12.30
2023-04-17T23:56:22.016Z,12.87
2023-04-17T23:58:49.207Z,11.93
